| time (UTC) | temp F | wind direction | speed knots | gust knots | rain 1hr in | rain 24hr in | rain mn in | humidity % | barometer mb |
| 20260506203703 | 67 | 200 | 2.6 | 11.3 | 0.00 | 0.01 | 0.01 | 80 | 1007.1 |
| 20260506203202 | 67 | 208 | 2.6 | 6.1 | 0.00 | 0.01 | 0.01 | 81 | 1007.5 |
| 20260506202702 | 67 | 214 | 4.3 | 8.7 | 0.00 | 0.01 | 0.01 | 81 | 1007.1 |
| 20260506202203 | 67 | 169 | 6.1 | 13.0 | 0.00 | 0.01 | 0.01 | 82 | 1007.5 |
| 20260506201702 | 67 | 205 | 2.6 | 11.3 | 0.00 | 0.01 | 0.01 | 82 | 1007.2 |
| 20260506201202 | 67 | 200 | 5.2 | 13.0 | 0.00 | 0.01 | 0.01 | 82 | 1007.1 |
| 20260506200702 | 66 | 202 | 2.6 | 8.7 | 0.00 | 0.01 | 0.01 | 83 | 1007.5 |
| 20260506195702 | 66 | 208 | 3.5 | 6.1 | 0.00 | 0.01 | 0.01 | 83 | 1007.8 |
| 20260506195202 | 66 | 217 | 2.6 | 8.7 | 0.00 | 0.01 | 0.01 | 83 | 1007.8 |
| 20260506194703 | 66 | 209 | 5.2 | 8.7 | 0.00 | 0.01 | 0.01 | 83 | 1007.8 |
| 20260506194203 | 66 | 166 | 4.3 | 13.0 | 0.00 | 0.01 | 0.01 | 83 | 1007.9 |
| 20260506193203 | 66 | 198 | 4.3 | 14.8 | 0.00 | 0.01 | 0.01 | 83 | 1007.8 |
| 20260506192703 | 66 | 175 | 5.2 | 13.0 | 0.00 | 0.01 | 0.01 | 84 | 1007.8 |
| 20260506192203 | 66 | 175 | 0.0 | 6.1 | 0.00 | 0.01 | 0.01 | 84 | 1008.1 |
| 20260506191702 | 66 | 202 | 2.6 | 8.7 | 0.00 | 0.01 | 0.01 | 84 | 1008.1 |
| 20260506191202 | 66 | 190 | 5.2 | 11.3 | 0.00 | 0.01 | 0.01 | 84 | 1008.1 |
| 20260506190203 | 66 | 203 | 5.2 | 14.8 | 0.00 | 0.01 | 0.01 | 85 | 1007.9 |
| 20260506185702 | 67 | 186 | 8.7 | 21.7 | 0.00 | 0.01 | 0.01 | 84 | 1008.4 |
| 20260506184703 | 67 | 181 | 7.0 | 17.4 | 0.00 | 0.01 | 0.01 | 80 | 1008.1 |
| 20260506184202 | 67 | 187 | 5.2 | 17.4 | 0.00 | 0.01 | 0.01 | 81 | 1008.1 |
| 20260506183702 | 67 | 170 | 2.6 | 8.7 | 0.00 | 0.01 | 0.01 | 81 | 1007.8 |
| 20260506182202 | 67 | 203 | 5.2 | 17.4 | 0.00 | 0.01 | 0.01 | 80 | 1008.1 |
| 20260506181702 | 67 | 185 | 4.3 | 14.8 | 0.00 | 0.01 | 0.01 | 79 | 1008.1 |
| 20260506181202 | 67 | 168 | 6.1 | 17.4 | 0.00 | 0.01 | 0.01 | 79 | 1008.3 |
| 20260506180702 | 67 | 181 | 7.8 | 19.1 | 0.00 | 0.01 | 0.01 | 78 | 1008.5 |
| 20260506180202 | 68 | 232 | 7.0 | 11.3 | 0.00 | 0.01 | 0.01 | 77 | 1008.5 |
| 20260506175702 | 68 | 230 | 9.6 | 19.1 | 0.00 | 0.01 | 0.01 | 77 | 1008.5 |
| 20260506175203 | 68 | 210 | 6.1 | 14.8 | 0.00 | 0.01 | 0.01 | 78 | 1008.5 |
| 20260506174702 | 68 | 199 | 6.1 | 14.8 | 0.00 | 0.01 | 0.01 | 78 | 1008.5 |
| 20260506173703 | 69 | 204 | 10.4 | 17.4 | 0.00 | 0.01 | 0.01 | 77 | 1008.5 |
| 20260506173202 | 69 | 208 | 6.1 | 13.0 | 0.00 | 0.01 | 0.01 | 78 | 1008.5 |
| 20260506172703 | 70 | 196 | 7.0 | 17.4 | 0.01 | 0.01 | 0.01 | 77 | 1008.5 |
| 20260506172202 | 70 | 207 | 7.8 | 14.8 | 0.01 | 0.01 | 0.01 | 77 | 1008.5 |
| 20260506171702 | 69 | 229 | 7.8 | 14.8 | 0.01 | 0.01 | 0.01 | 77 | 1008.5 |
| 20260506171203 | 69 | 183 | 6.1 | 14.8 | 0.01 | 0.01 | 0.01 | 76 | 1008.5 |
| 20260506165702 | 68 | 199 | 6.1 | 11.3 | 0.01 | 0.01 | 0.01 | 78 | 1008.8 |
| 20260506165203 | 67 | 186 | 4.3 | 11.3 | 0.01 | 0.01 | 0.01 | 80 | 1008.8 |
| 20260506164703 | 67 | 184 | 2.6 | 6.1 | 0.01 | 0.01 | 0.01 | 82 | 1009.1 |
| 20260506164202 | 67 | 123 | 2.6 | 6.1 | 0.01 | 0.01 | 0.01 | 82 | 1009.1 |
| 20260506163703 | 67 | 177 | 4.3 | 11.3 | 0.01 | 0.01 | 0.01 | 82 | 1009.5 |
| 20260506162702 | 67 | 213 | 1.7 | 8.7 | 0.00 | 0.00 | 0.00 | 82 | 1009.8 |
| 20260506162204 | 67 | 190 | 4.3 | 8.7 | 0.00 | 0.00 | 0.00 | 80 | 1009.8 |
| 20260506161703 | 67 | 193 | 4.3 | 8.7 | 0.00 | 0.00 | 0.00 | 80 | 1009.8 |
| 20260506161202 | 67 | 205 | 6.1 | 8.7 | 0.00 | 0.00 | 0.00 | 80 | 1009.8 |
| 20260506160702 | 67 | 188 | 4.3 | 11.3 | 0.00 | 0.00 | 0.00 | 80 | 1010.1 |
| 20260506160203 | 67 | 195 | 2.6 | 11.3 | 0.00 | 0.00 | 0.00 | 80 | 1010.2 |
| 20260506155702 | 68 | 181 | 4.3 | 8.7 | 0.00 | 0.00 | 0.00 | 79 | 1010.2 |
| 20260506154702 | 69 | 203 | 6.1 | 14.8 | 0.00 | 0.00 | 0.00 | 77 | 1010.2 |
| 20260506154203 | 69 | 175 | 4.3 | 14.8 | 0.00 | 0.00 | 0.00 | 76 | 1010.2 |
| 20260506153703 | 70 | 170 | 5.2 | 14.8 | 0.00 | 0.00 | 0.00 | 73 | 1009.8 |
| 20260506153203 | 70 | 186 | 5.2 | 13.0 | 0.00 | 0.00 | 0.00 | 70 | 1010.0 |
| 20260506152703 | 70 | 202 | 4.3 | 11.3 | 0.00 | 0.00 | 0.00 | 68 | 1010.2 |
| 20260506152202 | 70 | 203 | 6.1 | 13.0 | 0.00 | 0.00 | 0.00 | 67 | 1009.8 |
| 20260506151702 | 70 | 199 | 6.1 | 17.4 | 0.00 | 0.00 | 0.00 | 68 | 1010.2 |
| 20260506151203 | 70 | 206 | 6.1 | 13.0 | 0.00 | 0.00 | 0.00 | 68 | 1010.2 |
| 20260506150703 | 70 | 214 | 6.1 | 13.0 | 0.00 | 0.00 | 0.00 | 69 | 1010.2 |
| 20260506150202 | 70 | 191 | 6.1 | 11.3 | 0.00 | 0.00 | 0.00 | 68 | 1010.2 |
| 20260506145703 | 70 | 176 | 6.1 | 11.3 | 0.00 | 0.00 | 0.00 | 68 | 1010.2 |
| 20260506145202 | 70 | 212 | 5.2 | 14.8 | 0.00 | 0.00 | 0.00 | 68 | 1010.2 |
| 20260506144202 | 71 | 229 | 4.3 | 6.1 | 0.00 | 0.00 | 0.00 | 68 | 1010.2 |
| 20260506143202 | 71 | 195 | 7.8 | 13.0 | 0.00 | 0.00 | 0.00 | 66 | 1010.1 |
| 20260506142702 | 70 | 181 | 4.3 | 11.3 | 0.00 | 0.00 | 0.00 | 67 | 1010.2 |
| 20260506142203 | 70 | 210 | 5.2 | 14.8 | 0.00 | 0.00 | 0.00 | 67 | 1010.1 |
| 20260506141702 | 70 | 223 | 8.7 | 17.4 | 0.00 | 0.00 | 0.00 | 66 | 1009.9 |
| 20260506141203 | 70 | 202 | 7.0 | 14.8 | 0.00 | 0.00 | 0.00 | 67 | 1010.1 |
| 20260506140703 | 70 | 203 | 3.5 | 8.7 | 0.00 | 0.00 | 0.00 | 68 | 1010.1 |
| 20260506140202 | 70 | 190 | 4.3 | 14.8 | 0.00 | 0.00 | 0.00 | 68 | 1010.2 |
| 20260506135702 | 70 | 206 | 5.2 | 13.0 | 0.00 | 0.00 | 0.00 | 69 | 1010.0 |
| 20260506135203 | 70 | 192 | 7.8 | 14.8 | 0.00 | 0.00 | 0.00 | 69 | 1009.9 |
| 20260506134202 | 70 | 183 | 4.3 | 11.3 | 0.00 | 0.00 | 0.00 | 70 | 1009.8 |
| 20260506133702 | 70 | 197 | 6.1 | 14.8 | 0.00 | 0.00 | 0.00 | 69 | 1010.2 |
| 20260506133203 | 70 | 213 | 7.8 | 19.1 | 0.00 | 0.00 | 0.00 | 69 | 1010.2 |
| 20260506132702 | 70 | 191 | 4.3 | 13.0 | 0.00 | 0.00 | 0.00 | 70 | 1010.2 |
| 20260506132202 | 69 | 188 | 7.0 | 17.4 | 0.00 | 0.00 | 0.00 | 70 | 1010.2 |
| 20260506131702 | 69 | 181 | 6.1 | 13.0 | 0.00 | 0.00 | 0.00 | 70 | 1010.2 |
| 20260506130702 | 69 | 213 | 7.0 | 17.4 | 0.00 | 0.00 | 0.00 | 70 | 1010.2 |
| 20260506130203 | 69 | 191 | 7.0 | 13.0 | 0.00 | 0.00 | 0.00 | 71 | 1010.2 |
| 20260506125203 | 68 | 171 | 6.1 | 14.8 | 0.00 | 0.00 | 0.00 | 72 | 1010.2 |
| 20260506124704 | 68 | 184 | 7.0 | 14.8 | 0.00 | 0.00 | 0.00 | 72 | 1010.2 |
| 20260506124202 | 67 | 181 | 6.1 | 17.4 | 0.00 | 0.00 | 0.00 | 72 | 1010.2 |
| 20260506123702 | 67 | 201 | 4.3 | 13.0 | 0.00 | 0.00 | 0.00 | 74 | 1010.2 |
| 20260506123202 | 66 | 238 | 7.8 | 13.0 | 0.00 | 0.00 | 0.00 | 74 | 1010.2 |
| 20260506122702 | 66 | 189 | 7.0 | 13.0 | 0.00 | 0.00 | 0.00 | 75 | 1010.2 |
| 20260506122202 | 66 | 194 | 5.2 | 14.8 | 0.00 | 0.00 | 0.00 | 76 | 1010.5 |
| 20260506121702 | 66 | 217 | 4.3 | 13.0 | 0.00 | 0.00 | 0.00 | 76 | 1010.3 |
| 20260506121203 | 66 | 193 | 3.5 | 13.0 | 0.00 | 0.00 | 0.00 | 76 | 1010.2 |
| 20260506120702 | 66 | 206 | 4.3 | 13.0 | 0.00 | 0.00 | 0.00 | 76 | 1010.2 |
| 20260506120203 | 66 | 204 | 6.1 | 14.8 | 0.00 | 0.00 | 0.00 | 76 | 1010.3 |
| 20260506115703 | 66 | 199 | 6.1 | 13.0 | 0.00 | 0.00 | 0.00 | 76 | 1010.5 |
| 20260506115203 | 66 | 197 | 7.8 | 14.8 | 0.00 | 0.00 | 0.00 | 76 | 1010.2 |
| 20260506114703 | 65 | 202 | 5.2 | 13.0 | 0.00 | 0.00 | 0.00 | 77 | 1010.3 |
| 20260506114203 | 65 | 194 | 4.3 | 13.0 | 0.00 | 0.00 | 0.00 | 77 | 1010.5 |
| 20260506113703 | 65 | 190 | 7.0 | 14.8 | 0.00 | 0.00 | 0.00 | 77 | 1010.5 |
| 20260506111702 | 64 | 192 | 7.8 | 17.4 | 0.00 | 0.00 | 0.00 | 79 | 1010.4 |
| 20260506111203 | 64 | 197 | 7.8 | 17.4 | 0.00 | 0.00 | 0.00 | 80 | 1010.5 |
| 20260506110703 | 64 | 182 | 6.1 | 19.1 | 0.00 | 0.00 | 0.00 | 81 | 1010.5 |
| 20260506110203 | 64 | 189 | 5.2 | 11.3 | 0.00 | 0.00 | 0.00 | 81 | 1010.5 |
| 20260506105703 | 63 | 211 | 7.8 | 13.0 | 0.00 | 0.00 | 0.00 | 81 | 1010.2 |
| 20260506104702 | 63 | 217 | 3.5 | 11.3 | 0.00 | 0.00 | 0.00 | 82 | 1010.5 |
| 20260506104202 | 63 | 178 | 4.3 | 13.0 | 0.00 | 0.00 | 0.00 | 83 | 1010.3 |
| 20260506103702 | 63 | 191 | 7.8 | 13.0 | 0.00 | 0.00 | 0.00 | 83 | 1010.5 |
| 20260506103203 | 63 | 197 | 4.3 | 13.0 | 0.00 | 0.00 | 0.00 | 83 | 1010.5 |
| 20260506102703 | 63 | 188 | 3.5 | 11.3 | 0.00 | 0.00 | 0.00 | 84 | 1010.7 |
| 20260506101702 | 63 | 193 | 4.3 | 13.0 | 0.00 | 0.00 | 0.00 | 83 | 1010.5 |
| 20260506101203 | 63 | 185 | 6.1 | 13.0 | 0.00 | 0.00 | 0.00 | 83 | 1010.2 |
| 20260506100703 | 63 | 186 | 4.3 | 11.3 | 0.00 | 0.00 | 0.00 | 84 | 1010.2 |
| 20260506100203 | 63 | 195 | 4.3 | 11.3 | 0.00 | 0.00 | 0.00 | 84 | 1010.5 |
| 20260506095202 | 64 | 155 | 0.9 | 1.7 | 0.00 | 0.00 | 0.00 | 84 | 1010.2 |
| 20260506094703 | 64 | 179 | 3.5 | 8.7 | 0.00 | 0.00 | 0.00 | 84 | 1010.2 |
| 20260506092702 | 64 | 180 | 5.2 | 14.8 | 0.00 | 0.00 | 0.00 | 83 | 1010.2 |
| 20260506092203 | 64 | 185 | 4.3 | 13.0 | 0.00 | 0.00 | 0.00 | 83 | 1010.4 |
| 20260506091203 | 64 | 198 | 4.3 | 11.3 | 0.00 | 0.00 | 0.00 | 84 | 1010.2 |
| 20260506090702 | 64 | 180 | 4.3 | 11.3 | 0.00 | 0.00 | 0.00 | 83 | 1010.5 |
| 20260506090203 | 64 | 174 | 4.3 | 13.0 | 0.00 | 0.00 | 0.00 | 83 | 1010.5 |
| 20260506085703 | 64 | 199 | 4.3 | 13.0 | 0.00 | 0.00 | 0.00 | 83 | 1010.2 |
| 20260506085203 | 64 | 188 | 4.3 | 11.3 | 0.00 | 0.00 | 0.00 | 83 | 1010.5 |
| 20260506084703 | 64 | 205 | 5.2 | 13.0 | 0.00 | 0.00 | 0.00 | 83 | 1010.2 |
| 20260506084203 | 64 | 186 | 5.2 | 14.8 | 0.00 | 0.00 | 0.00 | 83 | 1010.8 |
| 20260506082702 | 64 | 210 | 5.2 | 13.0 | 0.00 | 0.00 | 0.00 | 83 | 1010.5 |
| 20260506082203 | 64 | 203 | 4.3 | 8.7 | 0.00 | 0.00 | 0.00 | 83 | 1010.5 |
| 20260506080703 | 65 | 179 | 2.6 | 11.3 | 0.00 | 0.00 | 0.00 | 83 | 1010.8 |
| 20260506072702 | 65 | 187 | 7.0 | 14.8 | 0.00 | 0.00 | 0.00 | 81 | 1010.5 |
| 20260506072202 | 65 | 198 | 3.5 | 13.0 | 0.00 | 0.00 | 0.00 | 81 | 1010.5 |
| 20260506071702 | 66 | 219 | 6.1 | 13.0 | 0.00 | 0.00 | 0.00 | 81 | 1010.5 |
| 20260506071202 | 66 | 216 | 6.1 | 14.8 | 0.00 | 0.00 | 0.00 | 80 | 1010.8 |
| 20260506070703 | 66 | 204 | 5.2 | 14.8 | 0.00 | 0.00 | 0.00 | 80 | 1010.8 |
| 20260506062202 | 67 | 191 | 6.1 | 17.4 | 0.00 | 0.00 | 0.00 | 78 | 1010.5 |
| 20260506060703 | 67 | 203 | 2.6 | 11.3 | 0.00 | 0.00 | 0.00 | 78 | 1010.8 |
| 20260506060203 | 67 | 201 | 4.3 | 13.0 | 0.00 | 0.00 | 0.00 | 77 | 1010.8 |
| 20260506051202 | 67 | 187 | 4.3 | 11.3 | 0.00 | 0.00 | 0.00 | 75 | 1011.2 |
| 20260506050703 | 67 | 175 | 3.5 | 8.7 | 0.00 | 0.00 | 0.00 | 75 | 1011.5 |
| 20260506050202 | 67 | 178 | 4.3 | 8.7 | 0.00 | 0.00 | 0.00 | 75 | 1011.2 |
| 20260506044703 | 68 | 209 | 2.6 | 11.3 | 0.00 | 0.00 | 0.00 | 74 | 1011.2 |
| 20260506044203 | 68 | 212 | 5.2 | 11.3 | 0.00 | 0.00 | 0.00 | 73 | 1011.5 |
| 20260506043702 | 68 | 142 | 4.3 | 13.0 | 0.00 | 0.00 | 0.00 | 73 | 1011.2 |
| 20260506043203 | 68 | 214 | 4.3 | 11.3 | 0.00 | 0.00 | 0.00 | 73 | 1011.5 |
| 20260506042703 | 68 | 211 | 2.6 | 8.7 | 0.00 | 0.00 | 0.00 | 72 | 1011.5 |
| 20260506042203 | 68 | 201 | 4.3 | 13.0 | 0.00 | 0.00 | 0.00 | 71 | 1011.3 |
| 20260506041702 | 68 | 205 | 6.1 | 13.0 | 0.00 | 0.00 | 0.00 | 71 | 1011.5 |
| 20260506041203 | 68 | 181 | 3.5 | 8.7 | 0.00 | 0.00 | 0.00 | 71 | 1011.5 |
| 20260506040703 | 68 | 187 | 2.6 | 11.3 | 0.00 | 0.00 | 0.00 | 71 | 1011.2 |
| 20260506040203 | 68 | 203 | 5.2 | 13.0 | 0.00 | 0.00 | 0.00 | 71 | 1011.2 |
| 20260506035703 | 68 | 196 | 4.3 | 11.3 | 0.00 | 0.00 | 0.00 | 71 | 1011.5 |
| 20260506035203 | 68 | 196 | 6.1 | 8.7 | 0.00 | 0.00 | 0.00 | 71 | 1011.2 |
| 20260506034703 | 68 | 207 | 6.1 | 8.7 | 0.00 | 0.00 | 0.00 | 70 | 1011.2 |
| 20260506034203 | 68 | 207 | 6.1 | 8.7 | 0.00 | 0.00 | 0.00 | 70 | 1011.2 |
| 20260506033703 | 68 | 140 | 1.7 | 8.7 | 0.00 | 0.00 | 0.00 | 70 | 1011.5 |
| 20260506033203 | 68 | 196 | 5.2 | 11.3 | 0.00 | 0.00 | 0.00 | 70 | 1011.4 |
| 20260506032703 | 68 | 204 | 3.5 | 11.3 | 0.00 | 0.00 | 0.00 | 70 | 1011.4 |
| 20260506032203 | 68 | 193 | 3.5 | 8.7 | 0.00 | 0.00 | 0.00 | 70 | 1011.5 |
| 20260506031703 | 68 | 225 | 2.6 | 8.7 | 0.00 | 0.00 | 0.00 | 69 | 1011.4 |
| 20260506031203 | 68 | 224 | 4.3 | 8.7 | 0.00 | 0.00 | 0.00 | 69 | 1011.4 |
| 20260506030703 | 68 | 173 | 0.0 | 11.3 | 0.00 | 0.00 | 0.00 | 70 | 1011.5 |
| 20260506030203 | 68 | 177 | 2.6 | 6.1 | 0.00 | 0.00 | 0.00 | 69 | 1011.5 |
| 20260506025703 | 68 | 162 | 0.9 | 6.1 | 0.00 | 0.00 | 0.00 | 69 | 1011.5 |
| 20260506025202 | 68 | 189 | 4.3 | 6.1 | 0.00 | 0.00 | 0.00 | 68 | 1011.5 |
| 20260506024703 | 68 | 212 | 2.6 | 6.1 | 0.00 | 0.00 | 0.00 | 68 | 1011.4 |
| 20260506024202 | 68 | 184 | 1.7 | 8.7 | 0.00 | 0.00 | 0.00 | 68 | 1011.5 |
| 20260506023703 | 69 | 173 | 1.7 | 8.7 | 0.00 | 0.00 | 0.00 | 67 | 1011.2 |
| 20260506023203 | 69 | 208 | 2.6 | 4.3 | 0.00 | 0.00 | 0.00 | 66 | 1011.5 |
| 20260506022703 | 69 | 209 | 2.6 | 8.7 | 0.00 | 0.00 | 0.00 | 66 | 1011.4 |
| 20260506022202 | 69 | 193 | 3.5 | 8.7 | 0.00 | 0.00 | 0.00 | 66 | 1011.5 |
| 20260506021204 | 69 | 204 | 3.5 | 11.3 | 0.00 | 0.00 | 0.00 | 65 | 1011.2 |
| 20260506020702 | 69 | 192 | 3.5 | 13.0 | 0.00 | 0.00 | 0.00 | 64 | 1011.5 |
| 20260506020202 | 70 | 200 | 5.2 | 13.0 | 0.00 | 0.00 | 0.00 | 64 | 1011.2 |
| 20260506015703 | 70 | 166 | 5.2 | 13.0 | 0.00 | 0.00 | 0.00 | 64 | 1011.2 |
| 20260506015202 | 70 | 191 | 2.6 | 8.7 | 0.00 | 0.00 | 0.00 | 64 | 1011.2 |
| 20260506014703 | 70 | 202 | 2.6 | 11.3 | 0.00 | 0.00 | 0.00 | 64 | 1011.2 |
| 20260506014203 | 71 | 200 | 5.2 | 8.7 | 0.00 | 0.00 | 0.00 | 63 | 1011.2 |
| 20260506013203 | 71 | 202 | 6.1 | 8.7 | 0.00 | 0.00 | 0.00 | 63 | 1011.2 |
| 20260506012703 | 71 | 188 | 1.7 | 13.0 | 0.00 | 0.00 | 0.00 | 63 | 1010.8 |
| 20260506012204 | 72 | 208 | 4.3 | 11.3 | 0.00 | 0.00 | 0.00 | 62 | 1011.2 |
| 20260506011203 | 72 | 209 | 4.3 | 11.3 | 0.00 | 0.00 | 0.00 | 61 | 1010.8 |
| 20260506010203 | 73 | 202 | 4.3 | 11.3 | 0.00 | 0.00 | 0.00 | 60 | 1010.8 |
| 20260506005702 | 73 | 196 | 2.6 | 8.7 | 0.00 | 0.00 | 0.00 | 59 | 1010.8 |
| 20260506005203 | 73 | 232 | 6.1 | 11.3 | 0.00 | 0.00 | 0.00 | 58 | 1010.8 |
| 20260506004702 | 73 | 199 | 4.3 | 14.8 | 0.00 | 0.00 | 0.00 | 58 | 1010.6 |
| 20260506004203 | 74 | 173 | 4.3 | 14.8 | 0.00 | 0.00 | 0.00 | 57 | 1010.5 |
| 20260506003702 | 74 | 213 | 6.1 | 13.0 | 0.00 | 0.00 | 0.00 | 56 | 1010.5 |
| 20260506003202 | 74 | 198 | 5.2 | 8.7 | 0.00 | 0.00 | 0.00 | 55 | 1010.5 |
| 20260506002703 | 75 | 198 | 7.0 | 8.7 | 0.00 | 0.00 | 0.00 | 53 | 1010.2 |
| 20260506002202 | 75 | 198 | 7.0 | 8.7 | 0.00 | 0.00 | 0.00 | 53 | 1010.2 |
| 20260506001702 | 75 | 193 | 6.1 | 11.3 | 0.00 | 0.00 | 0.00 | 53 | 1010.3 |
| 20260506001203 | 76 | 150 | 6.1 | 11.3 | 0.00 | 0.00 | 0.00 | 51 | 1010.5 |
| 20260506000703 | 76 | 187 | 7.8 | 17.4 | 0.00 | 0.00 | 0.00 | 51 | 1010.2 |
| 20260506000204 | 77 | 219 | 2.6 | 14.8 | 0.00 | 0.00 | 0.00 | 49 | 1010.2 |
| 20260505235202 | 77 | 203 | 6.1 | 14.8 | 0.00 | 0.00 | 0.00 | 47 | 1010.4 |
| 20260505234702 | 77 | 180 | 6.1 | 13.0 | 0.00 | 0.00 | 0.00 | 46 | 1010.2 |
| 20260505234203 | 78 | 199 | 4.3 | 11.3 | 0.00 | 0.00 | 0.00 | 45 | 1010.2 |
| 20260505233203 | 78 | 201 | 6.1 | 17.4 | 0.00 | 0.00 | 0.00 | 46 | 1009.8 |
| 20260505232703 | 78 | 217 | 3.5 | 8.7 | 0.00 | 0.00 | 0.00 | 46 | 1009.8 |
| 20260505232203 | 79 | 195 | 5.2 | 13.0 | 0.00 | 0.00 | 0.00 | 46 | 1009.8 |
| 20260505231703 | 79 | 199 | 5.2 | 14.8 | 0.00 | 0.00 | 0.00 | 45 | 1009.8 |
| 20260505231203 | 80 | 200 | 7.0 | 21.7 | 0.00 | 0.00 | 0.00 | 43 | 1009.6 |
| 20260505230703 | 80 | 177 | 8.7 | 21.7 | 0.00 | 0.00 | 0.00 | 43 | 1009.8 |
| 20260505230203 | 80 | 209 | 7.8 | 21.7 | 0.00 | 0.00 | 0.00 | 43 | 1009.5 |
| 20260505225203 | 81 | 165 | 6.1 | 14.8 | 0.00 | 0.00 | 0.00 | 41 | 1009.5 |
| 20260505223703 | 81 | 210 | 7.0 | 17.4 | 0.00 | 0.00 | 0.00 | 40 | 1009.1 |
| 20260505223202 | 82 | 215 | 7.8 | 17.4 | 0.00 | 0.00 | 0.00 | 40 | 1009.1 |
| 20260505222703 | 82 | 199 | 6.1 | 17.4 | 0.00 | 0.00 | 0.00 | 39 | 1009.1 |
| 20260505222202 | 82 | 194 | 9.6 | 19.1 | 0.00 | 0.00 | 0.00 | 38 | 1009.1 |
| 20260505221702 | 82 | 190 | 8.7 | 21.7 | 0.00 | 0.00 | 0.00 | 39 | 1009.1 |
| 20260505221203 | 83 | 199 | 11.3 | 21.7 | 0.00 | 0.00 | 0.00 | 38 | 1008.8 |
| 20260505220703 | 83 | 216 | 7.8 | 17.4 | 0.00 | 0.00 | 0.00 | 37 | 1008.5 |
| 20260505220203 | 83 | 198 | 6.1 | 14.8 | 0.00 | 0.00 | 0.00 | 35 | 1008.8 |
| 20260505215203 | 84 | 198 | 8.7 | 21.7 | 0.00 | 0.00 | 0.00 | 33 | 1009.1 |
| 20260505213702 | 84 | 169 | 7.0 | 14.8 | 0.00 | 0.00 | 0.00 | 33 | 1009.1 |
| 20260505213202 | 84 | 209 | 4.3 | 11.3 | 0.00 | 0.00 | 0.00 | 33 | 1009.1 |
| 20260505212703 | 84 | 166 | 4.3 | 13.0 | 0.00 | 0.00 | 0.00 | 33 | 1009.1 |
| 20260505212202 | 84 | 213 | 4.3 | 14.8 | 0.00 | 0.00 | 0.00 | 32 | 1008.8 |
| 20260505211202 | 84 | 202 | 10.4 | 24.3 | 0.00 | 0.00 | 0.00 | 34 | 1008.8 |
| 20260505205703 | 84 | 218 | 7.0 | 19.1 | 0.00 | 0.00 | 0.00 | 37 | 1008.5 |
| 20260505205203 | 84 | 149 | 11.3 | 19.1 | 0.00 | 0.00 | 0.00 | 37 | 1008.5 |
| 20260505204704 | 84 | 210 | 7.8 | 14.8 | 0.00 | 0.00 | 0.00 | 37 | 1008.2 |
| 20260505204203 | 84 | 235 | 5.2 | 19.1 | 0.00 | 0.00 | 0.00 | 38 | 1008.5 |